Time;durP1;ratioP1;P1;durP2;ratioP2;P2;SDS_P1;SDS_P2;PMS_P1;PMS_P2;Temp;Humidity;BMP_temperature;BMP_pressure;BME280_temperature;BME280_humidity;BME280_pressure;Samples;Min_cycle;Max_cycle;Signal;HPM_P1;HPM_P2
2021/10/27 00:00:27;;;;;;;;;;;154.50;2252.80;;;;;;5116348;27;19903;-77
2021/10/27 00:02:52;;;;;;;;;;;154.40;2252.80;;;;;;5116178;27;19904;-75
2021/10/27 00:05:18;;;;;;;;;;;154.40;2252.80;;;;;;5134600;27;19914;-75
2021/10/27 00:07:44;;;;;;;;;;;154.40;2252.80;;;;;;5108122;27;20273;-81
2021/10/27 00:10:10;;;;;;;;;;;154.30;2252.80;;;;;;5105803;27;19945;-78
2021/10/27 00:12:35;;;;;;;;;;;154.20;2252.80;;;;;;5107827;27;19927;-75
2021/10/27 00:15:02;;;;;;;;;;;154.20;2252.80;;;;;;5107848;28;19948;-75
2021/10/27 00:17:28;;;;;;;;;;;154.00;2252.80;;;;;;5106041;27;19985;-75
2021/10/27 00:19:54;;;;;;;;;;;154.20;2252.80;;;;;;5106638;27;19958;-75
2021/10/27 00:22:20;;;;;;;;;;;154.20;2252.80;;;;;;5104884;28;20348;-75
2021/10/27 00:24:46;;;;;;;;;;;154.00;2252.80;;;;;;5105993;28;20266;-75
2021/10/27 00:27:12;;;;;;;;;;;153.90;2252.80;;;;;;5112118;28;19919;-75
2021/10/27 00:29:39;;;;;;;;;;;153.90;2252.80;;;;;;5124063;27;19907;-75
2021/10/27 00:32:06;;;;;;;;;;;153.70;2252.80;;;;;;5107349;27;19998;-76
2021/10/27 00:34:31;;;;;;;;;;;153.80;2252.80;;;;;;5123570;27;19911;-75
2021/10/27 00:36:57;;;;;;;;;;;153.80;2252.80;;;;;;5107192;27;19904;-75
2021/10/27 00:39:23;;;;;;;;;;;153.70;2252.80;;;;;;5123016;27;20482;-75
2021/10/27 00:41:48;;;;;;;;;;;128.90;2252.80;;;;;;5111908;28;19919;-76
2021/10/27 00:44:24;;;;;;;;;;;128.90;2252.80;;;;;;5116448;28;19908;-74
2021/10/27 00:47:06;;;;;;;;;;;128.80;2252.80;;;;;;5132215;27;19911;-75
2021/10/27 00:49:33;;;;;;;;;;;128.70;2252.80;;;;;;5132582;28;19904;-75
2021/10/27 00:52:00;;;;;;;;;;;128.90;2252.80;;;;;;5115308;28;19988;-75
2021/10/27 00:54:25;;;;;;;;;;;153.70;2252.80;;;;;;5115612;28;19935;-79
2021/10/27 00:56:52;;;;;;;;;;;128.70;2252.80;;;;;;5115706;28;19942;-77
2021/10/27 00:59:18;;;;;;;;;;;153.60;2252.80;;;;;;5133921;27;19911;-76
2021/10/27 01:01:44;;;;;;;;;;;153.60;2252.80;;;;;;5106617;28;19952;-79
2021/10/27 01:04:09;;;;;;;;;;;153.60;2252.80;;;;;;5105437;28;19938;-75
2021/10/27 01:06:35;;;;;;;;;;;128.90;2252.80;;;;;;5122189;28;19915;-75
2021/10/27 01:09:02;;;;;;;;;;;153.60;2252.80;;;;;;5106163;28;20310;-75
2021/10/27 01:11:27;;;;;;;;;;;128.90;2252.80;;;;;;5108224;28;19907;-75
2021/10/27 01:13:53;;;;;;;;;;;128.80;2252.80;;;;;;5112888;28;19960;-75
2021/10/27 01:16:18;;;;;;;;;;;128.80;2252.80;;;;;;5129854;28;20339;-75
2021/10/27 01:18:44;;;;;;;;;;;128.80;2252.80;;;;;;5130052;28;19910;-76
2021/10/27 01:21:10;;;;;;;;;;;128.80;2252.80;;;;;;5115703;27;19910;-78
2021/10/27 01:23:36;;;;;;;;;;;128.90;2252.80;;;;;;5115522;27;19939;-77
2021/10/27 01:26:06;;;;;;;;;;;153.70;2252.80;;;;;;5119320;27;19958;-75
2021/10/27 01:28:36;;;;;;;;;;;153.60;2252.80;;;;;;5119628;27;19903;-75
2021/10/27 01:31:02;;;;;;;;;;;153.60;2252.80;;;;;;5119528;27;19903;-75
2021/10/27 01:33:27;;;;;;;;;;;153.60;2252.80;;;;;;5136559;27;19903;-76
2021/10/27 01:35:53;;;;;;;;;;;153.70;2252.80;;;;;;5119348;27;19904;-77
2021/10/27 01:38:18;;;;;;;;;;;153.60;2252.80;;;;;;5133791;27;20301;-75
2021/10/27 01:40:44;;;;;;;;;;;153.60;2252.80;;;;;;5112325;27;19908;-76
2021/10/27 01:43:09;;;;;;;;;;;153.70;2252.80;;;;;;5136447;27;19993;-75
2021/10/27 01:45:35;;;;;;;;;;;153.60;2252.80;;;;;;5119232;27;19911;-76
2021/10/27 01:48:01;;;;;;;;;;;153.60;2252.80;;;;;;5118955;27;19994;-75
2021/10/27 01:50:26;;;;;;;;;;;153.60;2252.80;;;;;;5118138;27;20364;-80
2021/10/27 01:52:52;;;;;;;;;;;153.70;2252.80;;;;;;5123749;27;20349;-76
2021/10/27 01:55:17;;;;;;;;;;;153.70;2252.80;;;;;;5104599;27;19907;-76
2021/10/27 01:57:43;;;;;;;;;;;153.80;2252.80;;;;;;5119089;27;19910;-77
2021/10/27 02:00:09;;;;;;;;;;;153.90;2252.80;;;;;;5119025;27;19903;-76
2021/10/27 02:02:35;;;;;;;;;;;154.10;2252.80;;;;;;5118733;27;19903;-76
2021/10/27 02:05:00;;;;;;;;;;;154.20;2252.80;;;;;;5119271;27;19907;-76
2021/10/27 02:07:26;;;;;;;;;;;154.30;2252.80;;;;;;5132472;27;19942;-80
2021/10/27 02:09:52;;;;;;;;;;;154.30;2252.80;;;;;;5131541;27;19986;-76
2021/10/27 02:12:18;;;;;;;;;;;154.20;2252.80;;;;;;5135870;27;19962;-76
2021/10/27 02:14:43;;;;;;;;;;;154.10;2252.80;;;;;;5133445;27;19908;-79
2021/10/27 02:17:09;;;;;;;;;;;153.90;2252.80;;;;;;5108894;28;20350;-76
2021/10/27 02:19:34;;;;;;;;;;;153.90;2252.80;;;;;;5127594;27;19926;-75
2021/10/27 02:22:00;;;;;;;;;;;153.80;2252.80;;;;;;5136710;27;19911;-75
2021/10/27 02:24:26;;;;;;;;;;;153.70;2252.80;;;;;;5115558;27;19914;-75
2021/10/27 02:26:52;;;;;;;;;;;153.70;2252.80;;;;;;5118247;27;19911;-79
2021/10/27 02:29:17;;;;;;;;;;;153.60;2252.80;;;;;;5136742;27;19911;-76
2021/10/27 02:31:43;;;;;;;;;;;153.60;2252.80;;;;;;5136801;27;19903;-75
2021/10/27 02:34:09;;;;;;;;;;;128.80;2252.80;;;;;;5136339;27;19949;-76
2021/10/27 02:36:34;;;;;;;;;;;153.80;2252.80;;;;;;5118111;27;19943;-80
2021/10/27 02:39:00;;;;;;;;;;;128.90;2252.80;;;;;;5117176;27;19910;-74
2021/10/27 02:41:26;;;;;;;;;;;128.90;2252.80;;;;;;5136132;27;20265;-76
2021/10/27 02:43:51;;;;;;;;;;;153.70;2252.80;;;;;;5117851;27;19907;-79
2021/10/27 02:46:17;;;;;;;;;;;128.90;2252.80;;;;;;5135987;27;20357;-75
2021/10/27 02:48:43;;;;;;;;;;;128.90;2252.80;;;;;;5117276;27;19903;-75
2021/10/27 02:51:09;;;;;;;;;;;153.60;2252.80;;;;;;5136353;27;19914;-77
2021/10/27 02:53:34;;;;;;;;;;;128.70;2252.80;;;;;;5136426;27;19932;-76
2021/10/27 02:56:00;;;;;;;;;;;128.50;2252.80;;;;;;5135840;27;19907;-79
2021/10/27 02:58:26;;;;;;;;;;;128.30;2252.80;;;;;;5135786;27;20253;-76
2021/10/27 03:00:51;;;;;;;;;;;128.30;2252.80;;;;;;5136080;27;20364;-80
2021/10/27 03:03:17;;;;;;;;;;;128.50;2252.80;;;;;;5136006;27;19971;-75
2021/10/27 03:05:43;;;;;;;;;;;128.30;2252.80;;;;;;5135402;27;20011;-76
2021/10/27 03:08:08;;;;;;;;;;;128.20;2252.80;;;;;;5116540;27;19908;-74
2021/10/27 03:10:34;;;;;;;;;;;128.00;2252.80;;;;;;5135014;27;20040;-75
2021/10/27 03:12:59;;;;;;;;;;;128.00;2252.80;;;;;;5116914;27;19930;-75
2021/10/27 03:15:25;;;;;;;;;;;128.20;2252.80;;;;;;5135444;27;19986;-79
2021/10/27 03:17:51;;;;;;;;;;;128.00;2252.80;;;;;;5135638;27;19907;-75
2021/10/27 03:20:16;;;;;;;;;;;103.30;2227.20;;;;;;5117367;27;19910;-75
2021/10/27 03:22:42;;;;;;;;;;;103.20;2227.20;;;;;;5135593;27;19976;-75
2021/10/27 03:25:08;;;;;;;;;;;103.30;2227.20;;;;;;5134747;27;19907;-79
2021/10/27 03:27:33;;;;;;;;;;;103.10;2227.20;;;;;;5135225;27;19907;-75
2021/10/27 03:29:59;;;;;;;;;;;103.00;2227.20;;;;;;5135164;27;19907;-75
2021/10/27 03:32:26;;;;;;;;;;;103.00;2227.20;;;;;;5135305;27;19991;-77
2021/10/27 03:34:51;;;;;;;;;;;103.00;2227.20;;;;;;5114623;28;20380;-75
2021/10/27 03:37:17;;;;;;;;;;;102.90;2227.20;;;;;;5117028;27;19903;-75
2021/10/27 03:39:43;;;;;;;;;;;102.90;2227.20;;;;;;5135310;27;19918;-75
2021/10/27 03:42:08;;;;;;;;;;;102.90;2227.20;;;;;;5134838;27;19956;-80
2021/10/27 03:44:34;;;;;;;;;;;102.90;2227.20;;;;;;5115858;27;19907;-75
2021/10/27 03:46:59;;;;;;;;;;;102.90;2227.20;;;;;;5134975;27;19911;-75
2021/10/27 03:49:25;;;;;;;;;;;102.80;2227.20;;;;;;5134873;27;19948;-75
2021/10/27 03:51:51;;;;;;;;;;;102.90;2227.20;;;;;;5135049;27;20002;-79
2021/10/27 03:54:16;;;;;;;;;;;102.80;2227.20;;;;;;5111434;28;19910;-75
2021/10/27 03:56:42;;;;;;;;;;;102.60;2227.20;;;;;;5109635;27;19908;-75
2021/10/27 03:59:07;;;;;;;;;;;102.60;2227.20;;;;;;5134921;27;19912;-79
2021/10/27 04:01:33;;;;;;;;;;;102.70;2227.20;;;;;;5114262;28;19994;-75
2021/10/27 04:03:59;;;;;;;;;;;102.70;2227.20;;;;;;5113842;28;19952;-75
2021/10/27 04:06:25;;;;;;;;;;;102.80;2227.20;;;;;;5104988;27;19911;-75
2021/10/27 04:08:50;;;;;;;;;;;102.90;2227.20;;;;;;5116398;27;19903;-78
2021/10/27 04:11:16;;;;;;;;;;;103.20;2227.20;;;;;;5115999;27;20280;-78
2021/10/27 04:13:41;;;;;;;;;;;103.20;2227.20;;;;;;5134678;27;19914;-75
2021/10/27 04:16:07;;;;;;;;;;;103.30;2227.20;;;;;;5134388;27;19911;-75
2021/10/27 04:18:33;;;;;;;;;;;103.30;2227.20;;;;;;5116098;28;19955;-77
2021/10/27 04:20:58;;;;;;;;;;;103.20;2227.20;;;;;;5116280;27;19907;-74
2021/10/27 04:23:24;;;;;;;;;;;103.10;2227.20;;;;;;5134380;27;19911;-75
2021/10/27 04:25:50;;;;;;;;;;;103.30;2227.20;;;;;;5134146;27;19919;-74
2021/10/27 04:28:16;;;;;;;;;;;128.00;2252.80;;;;;;5134307;27;19903;-74
2021/10/27 04:30:41;;;;;;;;;;;103.10;2227.20;;;;;;5134237;27;19995;-73
2021/10/27 04:33:14;;;;;;;;;;;103.20;2227.20;;;;;;5134173;27;20002;-74
2021/10/27 04:35:40;;;;;;;;;;;103.00;2227.20;;;;;;5134175;27;20345;-74
2021/10/27 04:38:06;;;;;;;;;;;102.80;2227.20;;;;;;5134001;27;19903;-74
2021/10/27 04:40:32;;;;;;;;;;;102.70;2227.20;;;;;;5133844;27;20249;-74
2021/10/27 04:42:57;;;;;;;;;;;102.70;2227.20;;;;;;5134139;27;20005;-74
2021/10/27 04:45:24;;;;;;;;;;;102.60;2227.20;;;;;;5115866;27;19968;-74
2021/10/27 04:47:49;;;;;;;;;;;102.70;2227.20;;;;;;5133996;27;19904;-74
2021/10/27 04:50:15;;;;;;;;;;;102.50;2227.20;;;;;;5115586;28;19910;-77
2021/10/27 04:52:41;;;;;;;;;;;102.60;2227.20;;;;;;5134133;28;19911;-74
2021/10/27 04:55:07;;;;;;;;;;;102.50;2227.20;;;;;;5133741;28;20268;-74
2021/10/27 04:57:33;;;;;;;;;;;102.50;2227.20;;;;;;5136593;27;20280;-79
2021/10/27 04:59:58;;;;;;;;;;;102.50;2227.20;;;;;;5138403;27;19914;-74
2021/10/27 05:02:24;;;;;;;;;;;102.50;2227.20;;;;;;5137955;27;19907;-78
2021/10/27 05:04:51;;;;;;;;;;;102.50;2227.20;;;;;;5119853;27;19903;-74
2021/10/27 05:07:18;;;;;;;;;;;102.80;2227.20;;;;;;5138042;27;20268;-74
2021/10/27 05:09:44;;;;;;;;;;;102.70;2227.20;;;;;;5138094;27;19903;-74
2021/10/27 05:12:10;;;;;;;;;;;102.80;2227.20;;;;;;5119052;27;19923;-75
2021/10/27 05:14:37;;;;;;;;;;;103.00;2227.20;;;;;;5117507;28;19965;-75
2021/10/27 05:17:06;;;;;;;;;;;103.30;2227.20;;;;;;5117311;28;19958;-74
2021/10/27 05:19:31;;;;;;;;;;;128.10;2252.80;;;;;;5117272;28;19953;-75
2021/10/27 05:21:57;;;;;;;;;;;103.20;2227.20;;;;;;5117431;28;19903;-74
2021/10/27 05:24:23;;;;;;;;;;;103.10;2227.20;;;;;;5098635;28;20003;-74
2021/10/27 05:26:48;;;;;;;;;;;103.30;2227.20;;;;;;5098216;28;19915;-79
2021/10/27 05:29:14;;;;;;;;;;;128.00;2252.80;;;;;;5117301;28;19910;-75
2021/10/27 05:31:39;;;;;;;;;;;103.30;2227.20;;;;;;5116912;28;19965;-76
2021/10/27 05:34:05;;;;;;;;;;;103.20;2227.20;;;;;;5117089;28;19964;-74
2021/10/27 05:36:31;;;;;;;;;;;103.00;2227.20;;;;;;5113921;28;20002;-75
2021/10/27 05:38:57;;;;;;;;;;;103.00;2227.20;;;;;;5088090;28;20364;-76
2021/10/27 05:41:23;;;;;;;;;;;103.00;2227.20;;;;;;5098262;28;19907;-74
2021/10/27 05:43:48;;;;;;;;;;;102.90;2227.20;;;;;;5117045;28;19975;-75
2021/10/27 05:46:17;;;;;;;;;;;102.80;2227.20;;;;;;5095897;28;19911;-79
2021/10/27 05:48:46;;;;;;;;;;;102.90;2227.20;;;;;;5098538;28;19903;-74
2021/10/27 05:56:44;;;;;;;;;;;103.00;2227.20;;;;;;5074251;28;19951;-76
2021/10/27 05:59:10;;;;;;;;;;;103.00;2227.20;;;;;;5065416;28;19943;-78
2021/10/27 06:01:35;;;;;;;;;;;103.00;2227.20;;;;;;5074058;28;19904;-76
2021/10/27 06:04:01;;;;;;;;;;;103.00;2227.20;;;;;;5063432;28;19912;-75
2021/10/27 06:06:26;;;;;;;;;;;103.00;2227.20;;;;;;5073726;28;19994;-75
2021/10/27 06:08:55;;;;;;;;;;;103.30;2227.20;;;;;;5065418;28;20413;-75
2021/10/27 06:11:20;;;;;;;;;;;103.30;2227.20;;;;;;5062811;28;20316;-74
2021/10/27 06:13:46;;;;;;;;;;;128.20;2252.80;;;;;;5104862;28;19908;-75
2021/10/27 06:16:15;;;;;;;;;;;128.30;2252.80;;;;;;5092901;28;19904;-75
2021/10/27 06:18:41;;;;;;;;;;;103.30;2227.20;;;;;;5097434;28;19904;-75
2021/10/27 06:21:07;;;;;;;;;;;103.20;2227.20;;;;;;5097548;28;19903;-75
2021/10/27 06:23:33;;;;;;;;;;;128.00;2252.80;;;;;;5100316;28;19904;-75
2021/10/27 06:25:59;;;;;;;;;;;128.40;2252.80;;;;;;5093869;28;19926;-77
2021/10/27 06:28:28;;;;;;;;;;;128.10;2252.80;;;;;;5112509;28;20069;-75
2021/10/27 06:30:59;;;;;;;;;;;128.00;2252.80;;;;;;5106271;27;19915;-74
2021/10/27 06:33:42;;;;;;;;;;;128.00;2252.80;;;;;;5136366;27;20343;-75
2021/10/27 06:46:43;;;;;;;;;;;128.50;2252.80;;;;;;5135934;27;19968;-75
2021/10/27 06:49:08;;;;;;;;;;;128.70;2252.80;;;;;;5116110;27;20010;-75
2021/10/27 06:51:34;;;;;;;;;;;128.70;2252.80;;;;;;5117606;27;20003;-78
2021/10/27 06:54:01;;;;;;;;;;;128.60;2252.80;;;;;;5116711;27;19903;-75
2021/10/27 06:56:27;;;;;;;;;;;128.70;2252.80;;;;;;5102777;27;19998;-76
2021/10/27 06:59:03;;;;;;;;;;;128.90;2252.80;;;;;;5136073;27;20375;-75
2021/10/27 07:01:54;;;;;;;;;;;128.70;2252.80;;;;;;5118001;27;19915;-76
2021/10/27 07:17:21;;;;;;;;;;;153.70;2252.80;;;;;;5127286;27;19914;-75
2021/10/27 07:19:47;;;;;;;;;;;153.70;2252.80;;;;;;5135036;27;19903;-77
2021/10/27 07:22:14;;;;;;;;;;;153.60;2252.80;;;;;;5117547;27;19904;-74
2021/10/27 07:24:40;;;;;;;;;;;128.80;2252.80;;;;;;5116970;27;19907;-77
2021/10/27 07:27:07;;;;;;;;;;;128.70;2252.80;;;;;;5135174;27;19922;-76
2021/10/27 07:29:34;;;;;;;;;;;128.80;2252.80;;;;;;5116803;27;19922;-78
2021/10/27 07:32:01;;;;;;;;;;;128.90;2252.80;;;;;;5135511;27;20357;-76
2021/10/27 07:34:33;;;;;;;;;;;128.90;2252.80;;;;;;5135570;27;19964;-74
2021/10/27 07:42:26;;;;;;;;;;;154.00;2252.80;;;;;;5133382;27;19915;-75
2021/10/27 07:44:52;;;;;;;;;;;154.30;2252.80;;;;;;5135329;27;19911;-76
2021/10/27 07:47:18;;;;;;;;;;;154.40;2252.80;;;;;;5117044;27;19930;-76
2021/10/27 07:49:44;;;;;;;;;;;154.50;2252.80;;;;;;5108278;27;19910;-75
2021/10/27 07:52:10;;;;;;;;;;;179.40;2252.80;;;;;;5116879;27;20310;-76
2021/10/27 07:54:36;;;;;;;;;;;179.40;2252.80;;;;;;5116513;27;20268;-80
2021/10/27 07:57:01;;;;;;;;;;;179.30;2252.80;;;;;;5116065;27;19908;-75
2021/10/27 07:59:27;;;;;;;;;;;154.50;2252.80;;;;;;5134715;27;19903;-75
2021/10/27 08:01:54;;;;;;;;;;;179.40;2252.80;;;;;;5134583;27;19904;-75
2021/10/27 08:04:20;;;;;;;;;;;179.50;2252.80;;;;;;5116401;27;19911;-79
2021/10/27 08:06:46;;;;;;;;;;;179.60;2252.80;;;;;;5134845;27;19911;-75
2021/10/27 08:09:12;;;;;;;;;;;179.70;2252.80;;;;;;5134552;27;19982;-72
2021/10/27 08:11:38;;;;;;;;;;;179.70;2252.80;;;;;;5134400;27;20452;-81
2021/10/27 08:14:03;;;;;;;;;;;179.70;2252.80;;;;;;5116837;27;20002;-73
2021/10/27 08:16:31;;;;;;;;;;;179.70;2252.80;;;;;;5120323;27;20376;-75
2021/10/27 08:18:57;;;;;;;;;;;180.10;2252.80;;;;;;5106138;28;19914;-76
2021/10/27 08:21:23;;;;;;;;;;;180.10;2252.80;;;;;;5120105;27;19937;-76
2021/10/27 08:23:49;;;;;;;;;;;180.10;2252.80;;;;;;5134321;27;20369;-74
2021/10/27 08:26:19;;;;;;;;;;;204.80;2252.80;;;;;;5115811;27;19915;-73
2021/10/27 08:29:13;;;;;;;;;;;204.80;2252.80;;;;;;5134156;27;20352;-75
2021/10/27 08:36:22;;;;;;;;;;;205.00;2252.80;;;;;;5134335;27;19956;-75
2021/10/27 08:38:49;;;;;;;;;;;205.00;2252.80;;;;;;5115509;27;19911;-78
2021/10/27 08:41:15;;;;;;;;;;;205.30;2252.80;;;;;;5115673;27;20276;-75
2021/10/27 08:43:41;;;;;;;;;;;205.30;2252.80;;;;;;5134080;27;19914;-75
2021/10/27 08:46:07;;;;;;;;;;;205.50;2252.80;;;;;;5115659;27;20364;-77
2021/10/27 08:48:37;;;;;;;;;;;205.60;2252.80;;;;;;5134049;27;19994;-80
2021/10/27 08:51:05;;;;;;;;;;;205.40;2252.80;;;;;;5134365;27;19915;-81
2021/10/27 08:53:31;;;;;;;;;;;205.60;2252.80;;;;;;5134163;28;20322;-75
2021/10/27 08:56:01;;;;;;;;;;;230.40;2252.80;;;;;;5134179;28;19969;-77
2021/10/27 08:58:31;;;;;;;;;;;230.50;2252.80;;;;;;5134112;28;19915;-78
2021/10/27 09:01:16;;;;;;;;;;;230.60;2252.80;;;;;;5116099;28;19907;-78
2021/10/27 09:04:16;;;;;;;;;;;230.90;2252.80;;;;;;5134071;28;19927;-75
2021/10/27 09:06:58;;;;;;;;;;;231.10;2252.80;;;;;;5115847;28;19912;-80
2021/10/27 09:35:06;;;;;;;;;;;282.30;2278.40;;;;;;5046259;28;19993;-79
2021/10/27 09:43:09;;;;;;;;;;;307.30;2304.00;;;;;;5025286;28;20011;-74
2021/10/27 10:04:03;;;;;;;;;;;308.10;2304.00;;;;;;5034627;28;20735;-76
2021/10/27 10:05:10;;;;;;;;;;;333.10;2329.60;;;;;;5137850;27;20260;-77
2021/10/27 10:07:36;;;;;;;;;;;333.40;2329.60;;;;;;5118766;27;19912;-77
2021/10/27 10:10:06;;;;;;;;;;;333.70;2329.60;;;;;;5118785;27;19903;-76
2021/10/27 10:12:36;;;;;;;;;;;333.70;2329.60;;;;;;5137044;27;19919;-75
2021/10/27 10:15:02;;;;;;;;;;;358.50;2329.60;;;;;;5116688;28;19908;-75
2021/10/27 10:17:28;;;;;;;;;;;358.70;2329.60;;;;;;5128665;27;19911;-75
2021/10/27 10:19:54;;;;;;;;;;;358.90;2329.60;;;;;;5117289;27;20348;-82
2021/10/27 10:22:33;;;;;;;;;;;359.10;2329.60;;;;;;5107901;27;19910;-75
2021/10/27 10:25:26;;;;;;;;;;;359.20;2329.60;;;;;;5136763;27;19953;-77
2021/10/27 10:27:53;;;;;;;;;;;384.00;2329.60;;;;;;5132381;27;20248;-76
2021/10/27 10:30:35;;;;;;;;;;;384.20;2329.60;;;;;;5136800;27;19910;-79
2021/10/27 10:33:07;;;;;;;;;;;384.40;2329.60;;;;;;5130347;27;19908;-76
2021/10/27 10:36:05;;;;;;;;;;;384.60;2329.60;;;;;;5106191;27;19987;-75
2021/10/27 11:38:18;;;;;;;;;;;460.80;1792.00;;;;;;5132511;27;19961;-76
2021/10/27 11:40:46;;;;;;;;;;;461.00;1715.20;;;;;;5135495;27;20351;-79
2021/10/27 11:48:27;;;;;;;;;;;461.20;1766.40;;;;;;5115209;28;20272;-74
2021/10/27 11:50:53;;;;;;;;;;;461.20;1740.80;;;;;;5122241;27;20437;-78
2021/10/27 11:53:26;;;;;;;;;;;461.10;1766.40;;;;;;5135234;27;19911;-78
2021/10/27 11:55:52;;;;;;;;;;;460.90;1766.40;;;;;;5135469;27;19904;-79
2021/10/27 11:58:18;;;;;;;;;;;460.90;1766.40;;;;;;5135036;27;19904;-79
2021/10/27 12:00:48;;;;;;;;;;;435.40;1792.00;;;;;;5129983;27;20332;-74
2021/10/27 12:03:19;;;;;;;;;;;436.10;1792.00;;;;;;5125725;27;19903;-77
2021/10/27 12:06:01;;;;;;;;;;;460.90;1766.40;;;;;;5105875;27;20252;-75
2021/10/27 12:11:17;;;;;;;;;;;461.20;1740.80;;;;;;5126179;27;19922;-78
2021/10/27 12:16:39;;;;;;;;;;;461.20;1664.00;;;;;;5134393;27;19980;-76
2021/10/27 12:19:06;;;;;;;;;;;461.40;1689.60;;;;;;5113961;27;19907;-79
2021/10/27 12:21:32;;;;;;;;;;;461.20;1689.60;;;;;;5112611;27;19907;-78
2021/10/27 12:24:00;;;;;;;;;;;461.30;1715.20;;;;;;5134082;27;19907;-79
2021/10/27 12:26:26;;;;;;;;;;;461.00;1715.20;;;;;;5114962;28;20011;-80
2021/10/27 12:29:22;;;;;;;;;;;461.00;1740.80;;;;;;5133857;27;19939;-74
2021/10/27 12:32:08;;;;;;;;;;;461.10;1689.60;;;;;;5130830;27;19907;-77
2021/10/27 12:34:52;;;;;;;;;;;461.00;1715.20;;;;;;5132735;27;19911;-75
2021/10/27 12:37:27;;;;;;;;;;;460.90;1740.80;;;;;;5133672;27;19944;-76
2021/10/27 12:39:52;;;;;;;;;;;460.90;1740.80;;;;;;5112294;27;19924;-79
2021/10/27 12:42:18;;;;;;;;;;;460.90;1689.60;;;;;;5132171;27;19907;-78
2021/10/27 12:44:48;;;;;;;;;;;460.90;1715.20;;;;;;5133204;27;19907;-75
2021/10/27 12:47:14;;;;;;;;;;;460.90;1740.80;;;;;;5114607;28;19911;-78
2021/10/27 12:49:40;;;;;;;;;;;460.80;1715.20;;;;;;5114451;27;20280;-75
2021/10/27 12:52:19;;;;;;;;;;;460.80;1715.20;;;;;;5134143;27;20392;-76
2021/10/27 12:54:45;;;;;;;;;;;460.80;1740.80;;;;;;5111700;28;19907;-75
2021/10/27 12:57:11;;;;;;;;;;;460.80;1715.20;;;;;;5132745;27;21189;-75
2021/10/27 12:59:36;;;;;;;;;;;460.80;1715.20;;;;;;5130129;28;19954;-74
2021/10/27 13:02:18;;;;;;;;;;;436.10;1715.20;;;;;;5133560;28;19945;-75
2021/10/27 13:04:54;;;;;;;;;;;436.10;1715.20;;;;;;5131360;28;19964;-74
2021/10/27 13:07:26;;;;;;;;;;;436.10;1689.60;;;;;;5133041;28;19911;-74
2021/10/27 13:10:23;;;;;;;;;;;436.00;1689.60;;;;;;5133478;28;19903;-73
2021/10/27 13:13:05;;;;;;;;;;;435.90;1689.60;;;;;;5109375;28;20328;-75
2021/10/27 13:15:53;;;;;;;;;;;435.80;1715.20;;;;;;5127944;27;20313;-74
2021/10/27 13:18:43;;;;;;;;;;;435.70;1689.60;;;;;;5134893;27;19904;-74
2021/10/27 13:29:35;;;;;;;;;;;435.30;1715.20;;;;;;5134541;27;19968;-75
2021/10/27 13:31:51;;;;;;;;;;;435.30;1715.20;;;;;;5129212;27;19948;-74
2021/10/27 13:34:17;;;;;;;;;;;410.50;1740.80;;;;;;5129504;27;19943;-73
2021/10/27 13:36:43;;;;;;;;;;;410.50;1766.40;;;;;;5126273;27;19912;-73
2021/10/27 13:39:09;;;;;;;;;;;410.40;1792.00;;;;;;5126542;27;19957;-73
2021/10/27 13:41:35;;;;;;;;;;;435.30;1766.40;;;;;;5129914;27;20344;-75
2021/10/27 13:44:15;;;;;;;;;;;410.40;1766.40;;;;;;5122078;27;20006;-74
2021/10/27 13:49:53;;;;;;;;;;;410.50;1766.40;;;;;;5126338;27;20268;-73
2021/10/27 14:06:22;;;;;;;;;;;410.20;1766.40;;;;;;5067239;28;19920;-76
2021/10/27 14:08:57;;;;;;;;;;;410.10;1766.40;;;;;;5061799;28;19916;-77
2021/10/27 14:11:27;;;;;;;;;;;410.00;1817.60;;;;;;5046335;28;20075;-79
2021/10/27 14:14:11;;;;;;;;;;;410.00;1792.00;;;;;;5063156;28;19908;-77
2021/10/27 14:19:41;;;;;;;;;;;409.90;1817.60;;;;;;5065826;28;19932;-78
2021/10/27 15:22:16;;;;;;;;;;;384.00;2022.40;;;;;;5129311;27;20341;-77
2021/10/27 15:41:31;;;;;;;;;;;358.80;2176.00;;;;;;4972260;28;20347;-78
2021/10/27 15:44:19;;;;;;;;;;;358.70;2201.60;;;;;;4992236;28;19913;-78
2021/10/27 15:52:15;;;;;;;;;;;358.40;2278.40;;;;;;4992379;28;19929;-78
2021/10/27 15:54:43;;;;;;;;;;;358.40;2304.00;;;;;;4981894;28;19906;-78
2021/10/27 15:57:10;;;;;;;;;;;333.70;2329.60;;;;;;4972728;28;20038;-78
2021/10/27 15:59:36;;;;;;;;;;;333.60;2329.60;;;;;;4972933;28;19908;-78
2021/10/27 16:02:01;;;;;;;;;;;333.50;2329.60;;;;;;5007456;28;19913;-79
2021/10/27 16:04:27;;;;;;;;;;;333.50;2329.60;;;;;;5009944;28;19917;-78
2021/10/27 16:06:55;;;;;;;;;;;333.40;2329.60;;;;;;5013908;28;20457;-79
2021/10/27 16:09:25;;;;;;;;;;;333.30;2329.60;;;;;;5031679;28;20378;-78
2021/10/27 16:11:50;;;;;;;;;;;333.30;2329.60;;;;;;5030590;28;19937;-80
2021/10/27 16:14:16;;;;;;;;;;;333.20;2329.60;;;;;;5113675;28;20424;-79
2021/10/27 16:16:42;;;;;;;;;;;333.20;2329.60;;;;;;5102182;27;20309;-79
2021/10/27 16:19:08;;;;;;;;;;;333.10;2329.60;;;;;;5128190;27;19911;-77
2021/10/27 16:21:35;;;;;;;;;;;333.00;2329.60;;;;;;5134887;27;19955;-79
2021/10/27 16:24:00;;;;;;;;;;;333.00;2329.60;;;;;;5116656;27;19904;-79
2021/10/27 16:26:26;;;;;;;;;;;333.00;2329.60;;;;;;5115154;27;19915;-78
2021/10/27 16:28:52;;;;;;;;;;;332.90;2329.60;;;;;;5116140;27;19994;-79
2021/10/27 16:31:17;;;;;;;;;;;332.80;2329.60;;;;;;5133816;27;19907;-79
2021/10/27 16:33:45;;;;;;;;;;;308.10;2304.00;;;;;;5104464;27;19907;-79
2021/10/27 16:36:12;;;;;;;;;;;308.10;2304.00;;;;;;5110266;27;19911;-78
2021/10/27 16:38:38;;;;;;;;;;;308.10;2304.00;;;;;;5112277;28;19904;-78
2021/10/27 16:41:04;;;;;;;;;;;308.00;2304.00;;;;;;5113652;27;19916;-78
2021/10/27 16:43:30;;;;;;;;;;;308.00;2304.00;;;;;;5115269;28;19926;-79
2021/10/27 16:45:55;;;;;;;;;;;307.90;2304.00;;;;;;5109774;27;19907;-78
2021/10/27 16:48:21;;;;;;;;;;;307.80;2304.00;;;;;;5115018;27;19917;-79
2021/10/27 16:50:47;;;;;;;;;;;307.80;2304.00;;;;;;5115944;27;20405;-79
2021/10/27 16:53:13;;;;;;;;;;;307.80;2304.00;;;;;;5107395;27;19910;-78
2021/10/27 16:55:38;;;;;;;;;;;307.80;2304.00;;;;;;5107702;28;20376;-79
2021/10/27 16:58:04;;;;;;;;;;;307.70;2304.00;;;;;;5109861;28;20386;-78
2021/10/27 17:00:31;;;;;;;;;;;307.70;2304.00;;;;;;5105191;28;20221;-79
2021/10/27 17:02:57;;;;;;;;;;;307.60;2304.00;;;;;;5103638;28;19949;-79
2021/10/27 17:05:22;;;;;;;;;;;307.40;2304.00;;;;;;5108328;28;19904;-79
2021/10/27 17:07:48;;;;;;;;;;;307.50;2304.00;;;;;;5098075;28;19904;-79
2021/10/27 17:10:15;;;;;;;;;;;307.50;2304.00;;;;;;5095922;28;19965;-79
2021/10/27 17:12:42;;;;;;;;;;;307.50;2304.00;;;;;;5101546;28;19926;-78
2021/10/27 17:15:08;;;;;;;;;;;307.40;2304.00;;;;;;5095725;28;19911;-78
2021/10/27 17:17:34;;;;;;;;;;;307.30;2304.00;;;;;;5107354;28;19946;-83
2021/10/27 17:20:00;;;;;;;;;;;307.30;2304.00;;;;;;5133653;28;19943;-77
2021/10/27 17:22:27;;;;;;;;;;;307.30;2304.00;;;;;;5115485;28;19903;-78
2021/10/27 17:24:53;;;;;;;;;;;307.30;2304.00;;;;;;5106242;28;19904;-77
2021/10/27 17:27:20;;;;;;;;;;;307.20;2304.00;;;;;;5104841;28;19918;-79
2021/10/27 17:29:45;;;;;;;;;;;307.20;2304.00;;;;;;5115052;28;19904;-78
2021/10/27 17:32:11;;;;;;;;;;;307.20;2304.00;;;;;;5115862;28;19914;-78
2021/10/27 17:34:36;;;;;;;;;;;282.50;2278.40;;;;;;5133297;28;20387;-78
2021/10/27 17:37:02;;;;;;;;;;;282.50;2278.40;;;;;;5115248;28;19910;-78
2021/10/27 17:39:30;;;;;;;;;;;282.30;2278.40;;;;;;5134081;28;19956;-78
2021/10/27 17:41:56;;;;;;;;;;;282.30;2278.40;;;;;;5115212;28;19954;-78
2021/10/27 17:44:22;;;;;;;;;;;282.20;2278.40;;;;;;5115511;28;19912;-78
2021/10/27 17:47:25;;;;;;;;;;;282.10;2278.40;;;;;;5115272;28;19918;-79
2021/10/27 17:52:14;;;;;;;;;;;282.00;2278.40;;;;;;5123879;28;19908;-82
2021/10/27 18:00:08;;;;;;;;;;;282.00;2278.40;;;;;;5131474;28;19910;-79
2021/10/27 18:02:36;;;;;;;;;;;281.90;2278.40;;;;;;5133334;27;19903;-78
2021/10/27 18:05:02;;;;;;;;;;;282.00;2278.40;;;;;;5133401;27;19998;-78
2021/10/27 18:07:30;;;;;;;;;;;282.10;2278.40;;;;;;5136243;27;19912;-77
2021/10/27 18:09:56;;;;;;;;;;;282.00;2278.40;;;;;;5137136;27;19990;-78
2021/10/27 18:12:24;;;;;;;;;;;282.00;2278.40;;;;;;5118671;27;19931;-78
2021/10/27 18:14:51;;;;;;;;;;;282.10;2278.40;;;;;;5111905;27;20317;-79
2021/10/27 18:17:20;;;;;;;;;;;282.10;2278.40;;;;;;5110285;27;19903;-78
2021/10/27 18:20:04;;;;;;;;;;;281.90;2278.40;;;;;;5109741;28;19911;-79
2021/10/27 18:27:59;;;;;;;;;;;281.90;2278.40;;;;;;5136718;27;19922;-77